createdAt,value
2022-09-17T00:00:04.572Z,12.57
2022-09-17T00:01:04.562Z,12.55
2022-09-17T00:02:04.705Z,12.54
2022-09-17T00:03:04.592Z,12.54
2022-09-17T00:04:04.849Z,12.54
2022-09-17T00:05:04.510Z,12.53
2022-09-17T00:06:11.180Z,12.53
2022-09-17T00:07:04.502Z,12.54
2022-09-17T00:08:04.480Z,12.50
2022-09-17T00:09:04.469Z,12.50
2022-09-17T00:10:04.445Z,12.50
2022-09-17T00:11:04.495Z,12.50
2022-09-17T00:12:04.436Z,12.53
2022-09-17T00:13:05.097Z,12.50
2022-09-17T00:14:04.390Z,12.50
2022-09-17T00:15:04.381Z,12.53
2022-09-17T00:16:04.410Z,12.49
2022-09-17T00:17:04.371Z,12.50
2022-09-17T00:18:04.339Z,12.50
2022-09-17T00:19:04.390Z,12.50
2022-09-17T00:20:04.312Z,12.50
2022-09-17T00:21:04.308Z,12.47
2022-09-17T00:22:04.310Z,12.49
2022-09-17T00:23:04.270Z,12.50
2022-09-17T00:24:04.275Z,12.46
2022-09-17T00:25:04.257Z,12.47
2022-09-17T00:26:04.276Z,12.46
2022-09-17T00:27:04.244Z,12.47
2022-09-17T00:28:04.277Z,12.46
2022-09-17T00:29:04.201Z,12.46
2022-09-17T00:30:04.197Z,12.49
2022-09-17T00:31:04.238Z,12.46
2022-09-17T00:32:04.188Z,12.49
2022-09-17T00:33:04.156Z,12.47
2022-09-17T00:34:04.156Z,12.46
2022-09-17T00:35:04.127Z,12.46
2022-09-17T00:36:04.120Z,12.46
2022-09-17T00:37:04.116Z,12.47
2022-09-17T00:38:04.077Z,12.46
2022-09-17T00:39:04.066Z,12.47
2022-09-17T00:40:04.148Z,12.46
2022-09-17T00:41:04.043Z,12.45
2022-09-17T00:42:04.042Z,12.46
2022-09-17T00:43:04.017Z,12.45
2022-09-17T00:44:03.997Z,12.46
2022-09-17T00:45:04.001Z,12.45
2022-09-17T00:46:04.008Z,12.43
2022-09-17T00:47:03.967Z,12.43
2022-09-17T00:48:03.948Z,12.45
2022-09-17T00:49:03.937Z,12.45
2022-09-17T00:50:03.935Z,12.46
2022-09-17T00:51:03.906Z,12.42
2022-09-17T00:52:03.906Z,12.45
2022-09-17T00:53:03.886Z,12.45
2022-09-17T00:54:03.877Z,12.42
2022-09-17T00:55:03.855Z,12.45
2022-09-17T00:56:03.845Z,12.42
2022-09-17T00:57:03.845Z,12.42
2022-09-17T00:58:03.829Z,12.43
2022-09-17T00:59:03.804Z,12.42
2022-09-17T01:00:03.809Z,12.43
2022-09-17T01:01:03.830Z,12.42
2022-09-17T01:02:03.837Z,12.40
2022-09-17T01:03:03.744Z,12.42
2022-09-17T01:04:03.744Z,12.42
2022-09-17T01:05:03.723Z,12.42
2022-09-17T01:06:03.707Z,12.42
2022-09-17T01:07:03.714Z,12.42
2022-09-17T01:08:03.683Z,12.40
2022-09-17T01:09:03.665Z,12.42
2022-09-17T01:10:03.664Z,12.42
2022-09-17T01:11:03.635Z,12.40
2022-09-17T01:12:03.644Z,12.42
2022-09-17T01:13:03.622Z,12.39
2022-09-17T01:14:03.613Z,12.39
2022-09-17T01:15:03.594Z,12.39
2022-09-17T01:16:03.619Z,12.39
2022-09-17T01:17:03.573Z,12.39
2022-09-17T01:18:03.554Z,12.39
2022-09-17T01:19:03.544Z,12.39
2022-09-17T01:20:03.533Z,12.37
2022-09-17T01:21:03.503Z,12.37
2022-09-17T01:22:03.524Z,12.37
2022-09-17T01:23:18.163Z,12.37
2022-09-17T01:24:03.472Z,12.37
2022-09-17T01:25:03.452Z,12.36
2022-09-17T01:26:03.442Z,12.36
2022-09-17T01:27:03.433Z,12.37
2022-09-17T01:28:03.422Z,12.39
2022-09-17T01:29:03.403Z,12.37
2022-09-17T01:30:03.392Z,12.39
2022-09-17T01:31:03.425Z,12.36
2022-09-17T01:32:03.381Z,12.35
2022-09-17T01:33:03.354Z,12.36
2022-09-17T01:34:03.341Z,12.37
2022-09-17T01:35:03.321Z,12.37
2022-09-17T01:36:03.357Z,12.35
2022-09-17T01:37:03.305Z,12.32
2022-09-17T01:38:03.292Z,12.35
2022-09-17T01:39:03.271Z,12.32
2022-09-17T01:40:03.422Z,12.35
2022-09-17T01:41:03.252Z,12.32
2022-09-17T01:42:03.243Z,12.35
2022-09-17T01:43:03.225Z,12.32
2022-09-17T01:44:03.211Z,12.32
2022-09-17T01:45:03.200Z,12.31
2022-09-17T01:46:03.183Z,12.31
2022-09-17T01:47:03.183Z,12.31
2022-09-17T01:48:03.161Z,12.31
2022-09-17T01:49:03.138Z,12.31
2022-09-17T01:50:03.131Z,12.29
2022-09-17T01:51:03.139Z,12.29
2022-09-17T01:52:03.152Z,12.29
2022-09-17T01:53:03.130Z,12.29
2022-09-17T01:54:03.109Z,12.29
2022-09-17T01:55:03.059Z,12.29
2022-09-17T01:56:03.051Z,12.27
2022-09-17T01:57:03.060Z,12.28
2022-09-17T01:58:03.059Z,12.29
2022-09-17T01:59:03.088Z,12.29
2022-09-17T02:00:03.071Z,12.28
2022-09-17T02:01:03.036Z,12.31
2022-09-17T02:02:03.032Z,12.28
2022-09-17T02:03:02.967Z,12.28
2022-09-17T02:04:02.969Z,12.28
2022-09-17T02:05:02.934Z,12.27
2022-09-17T02:06:02.920Z,12.28
2022-09-17T02:07:02.918Z,12.28
2022-09-17T02:08:02.898Z,12.27
2022-09-17T02:09:02.879Z,12.27
2022-09-17T02:10:02.885Z,12.27
2022-09-17T02:11:02.848Z,12.27
2022-09-17T02:12:02.857Z,12.27
2022-09-17T02:13:02.830Z,12.27
2022-09-17T02:14:02.828Z,12.28
2022-09-17T02:15:02.808Z,12.27
2022-09-17T02:16:02.847Z,12.25
2022-09-17T02:17:02.784Z,12.27
2022-09-17T02:18:02.766Z,12.22
2022-09-17T02:19:02.750Z,12.25
2022-09-17T02:20:02.747Z,12.24
2022-09-17T02:21:02.724Z,12.24
2022-09-17T02:22:02.718Z,12.25
2022-09-17T02:23:02.697Z,12.22
2022-09-17T02:24:02.687Z,12.24
2022-09-17T02:25:02.677Z,12.24
2022-09-17T02:26:02.656Z,12.24
2022-09-17T02:27:02.656Z,12.22
2022-09-17T02:28:03.589Z,12.21
2022-09-17T02:29:02.646Z,12.21
2022-09-17T02:30:02.616Z,12.22
2022-09-17T02:31:02.681Z,12.21
2022-09-17T02:32:02.585Z,12.20
2022-09-17T02:33:03.825Z,12.18
2022-09-17T02:34:02.575Z,12.18
2022-09-17T02:35:02.537Z,12.18
2022-09-17T02:36:02.555Z,12.18
2022-09-17T02:37:02.519Z,12.18
2022-09-17T02:38:02.515Z,12.17
2022-09-17T02:39:02.488Z,12.17
2022-09-17T02:40:02.637Z,12.18
2022-09-17T02:41:02.465Z,12.15
2022-09-17T02:42:02.455Z,12.17
2022-09-17T02:43:02.446Z,12.15
2022-09-17T02:44:02.436Z,12.17
2022-09-17T02:45:02.423Z,12.13
2022-09-17T02:46:02.405Z,12.17
2022-09-17T02:47:02.385Z,12.15
2022-09-17T02:48:02.396Z,12.15
2022-09-17T02:49:02.364Z,12.13
2022-09-17T02:50:02.354Z,12.13
2022-09-17T02:51:02.334Z,12.13
2022-09-17T02:52:02.324Z,12.10
2022-09-17T02:53:02.329Z,12.12
2022-09-17T02:54:02.302Z,12.13
2022-09-17T02:55:02.285Z,12.12
2022-09-17T02:56:02.273Z,12.10
2022-09-17T02:57:02.254Z,12.12
2022-09-17T02:58:02.258Z,12.10
2022-09-17T02:59:02.233Z,12.10
2022-09-17T03:00:02.257Z,12.10
2022-09-17T03:01:02.293Z,12.09
2022-09-17T03:02:02.280Z,12.10
2022-09-17T03:03:02.193Z,12.07
2022-09-17T03:04:02.172Z,12.07
2022-09-17T03:05:02.156Z,12.09
2022-09-17T03:06:02.150Z,12.06
2022-09-17T03:07:02.131Z,12.06
2022-09-17T03:08:02.129Z,12.04
2022-09-17T03:09:02.102Z,12.07
2022-09-17T03:10:02.092Z,12.04
2022-09-17T03:11:02.071Z,12.03
2022-09-17T03:12:02.062Z,12.03
2022-09-17T03:13:02.051Z,12.04
2022-09-17T03:14:02.041Z,12.03
2022-09-17T03:15:02.022Z,12.03
2022-09-17T03:16:02.058Z,12.03
2022-09-17T03:17:02.052Z,12.00
2022-09-17T03:18:02.020Z,12.03
2022-09-17T03:19:01.971Z,12.02
2022-09-17T03:20:01.984Z,12.00
2022-09-17T03:21:01.951Z,12.00
2022-09-17T03:22:01.932Z,11.99
2022-09-17T03:23:01.928Z,11.99
2022-09-17T03:24:01.910Z,11.99
2022-09-17T03:25:01.890Z,11.97
2022-09-17T03:26:01.880Z,11.99
2022-09-17T03:27:01.861Z,11.97
2022-09-17T03:28:01.863Z,11.97
2022-09-17T03:29:01.840Z,11.95
2022-09-17T03:30:01.829Z,11.94
2022-09-17T03:31:01.852Z,11.91
2022-09-17T03:32:01.800Z,11.90
2022-09-17T03:33:01.799Z,11.91
2022-09-17T03:34:01.781Z,11.90
2022-09-17T03:35:01.761Z,11.91
2022-09-17T03:36:01.749Z,11.90
2022-09-17T03:37:01.755Z,11.87
2022-09-17T03:38:01.729Z,11.87
2022-09-17T03:39:01.709Z,11.87
2022-09-17T03:40:01.742Z,11.87
2022-09-17T03:41:01.709Z,11.87
2022-09-17T03:42:01.668Z,11.87
2022-09-17T03:43:01.660Z,11.87
2022-09-17T03:45:23.190Z,11.86
2022-09-17T03:46:23.390Z,11.84
2022-09-17T03:47:22.811Z,11.86
2022-09-17T03:48:23.391Z,11.84
2022-09-17T03:49:22.694Z,11.84
2022-09-17T03:50:23.036Z,11.83
2022-09-17T03:51:22.628Z,11.84
2022-09-17T03:52:22.685Z,11.83
2022-09-17T03:53:22.649Z,11.83
2022-09-17T03:54:22.573Z,11.81
2022-09-17T03:55:22.606Z,11.80
2022-09-17T03:56:22.780Z,11.81
2022-09-17T03:57:22.803Z,11.81
2022-09-17T03:58:22.506Z,11.80
2022-09-17T03:59:22.823Z,11.77
2022-09-17T04:00:22.430Z,11.77
2022-09-17T04:01:22.599Z,11.77
2022-09-17T04:02:22.604Z,11.75
2022-09-17T04:03:23.099Z,11.77
2022-09-17T04:04:22.515Z,11.75
2022-09-17T04:05:22.485Z,11.73
2022-09-17T04:06:22.799Z,11.73
2022-09-17T04:07:22.430Z,11.73
2022-09-17T04:08:22.611Z,11.72
2022-09-17T04:09:22.604Z,11.70
2022-09-17T04:10:22.394Z,11.70
2022-09-17T04:11:22.572Z,11.72
2022-09-17T04:12:22.438Z,11.69
2022-09-17T04:13:22.367Z,11.70
2022-09-17T04:14:22.390Z,11.69
2022-09-17T04:15:22.444Z,11.69
2022-09-17T04:16:22.313Z,11.68
2022-09-17T04:17:22.305Z,11.68
2022-09-17T04:18:22.315Z,11.68
2022-09-17T04:19:22.490Z,11.68
2022-09-17T04:20:22.486Z,11.66
2022-09-17T04:21:22.173Z,11.66
2022-09-17T04:22:22.425Z,11.69
2022-09-17T04:23:22.174Z,11.68
2022-09-17T04:24:22.217Z,11.68
2022-09-17T04:25:22.594Z,11.68
2022-09-17T04:26:22.429Z,11.68
2022-09-17T04:27:22.476Z,11.68
2022-09-17T04:28:22.190Z,11.66
2022-09-17T04:29:22.503Z,11.69
2022-09-17T04:30:22.297Z,11.66
2022-09-17T04:31:22.234Z,11.66
2022-09-17T04:32:22.000Z,11.66
2022-09-17T04:33:22.341Z,11.66
2022-09-17T04:34:22.160Z,11.65
2022-09-17T04:35:22.005Z,11.66
2022-09-17T04:36:21.962Z,11.65
2022-09-17T04:37:21.970Z,11.65
2022-09-17T04:38:21.972Z,11.62
2022-09-17T04:39:22.031Z,11.65
2022-09-17T04:40:21.966Z,11.60
2022-09-17T04:41:22.001Z,11.62
2022-09-17T04:42:21.891Z,11.63
2022-09-17T04:43:21.981Z,11.60
2022-09-17T04:44:21.878Z,11.62
2022-09-17T04:45:21.850Z,11.62
2022-09-17T04:46:21.971Z,11.60
2022-09-17T04:47:21.929Z,11.62
2022-09-17T04:48:22.159Z,11.60
2022-09-17T04:49:21.826Z,11.59
2022-09-17T04:50:21.817Z,11.59
2022-09-17T04:51:22.031Z,11.59
2022-09-17T04:52:21.859Z,11.59
2022-09-17T04:53:21.717Z,11.59
2022-09-17T04:54:21.736Z,11.55
2022-09-17T04:55:21.804Z,11.57
2022-09-17T04:56:21.890Z,11.54
2022-09-17T04:57:21.748Z,11.57
2022-09-17T04:58:21.715Z,11.54
2022-09-17T04:59:21.668Z,11.54
2022-09-17T05:00:21.778Z,11.54
2022-09-17T05:01:21.833Z,11.52
2022-09-17T05:02:21.639Z,11.51
2022-09-17T05:03:21.632Z,11.50
2022-09-17T05:04:21.609Z,11.50
2022-09-17T05:05:21.816Z,11.50
2022-09-17T05:06:21.750Z,11.50
2022-09-17T05:07:21.646Z,11.50
2022-09-17T05:08:21.554Z,11.51
2022-09-17T05:09:21.618Z,11.51
2022-09-17T05:10:21.590Z,11.48
2022-09-17T05:11:21.467Z,11.50
2022-09-17T05:12:21.547Z,11.48
2022-09-17T05:13:21.760Z,11.50
2022-09-17T05:14:21.543Z,11.48
2022-09-17T05:15:21.506Z,11.50
2022-09-17T05:16:21.499Z,11.51
2022-09-17T05:17:21.582Z,11.50
2022-09-17T05:18:21.403Z,11.50
2022-09-17T05:19:21.417Z,11.50
2022-09-17T05:20:21.374Z,11.50
2022-09-17T05:21:21.398Z,11.50
2022-09-17T05:22:21.774Z,11.51
2022-09-17T05:23:21.327Z,11.52
2022-09-17T05:24:21.310Z,11.52
2022-09-17T05:25:21.468Z,11.55
2022-09-17T05:26:21.328Z,11.55
2022-09-17T05:27:21.368Z,11.59
2022-09-17T05:28:21.334Z,11.59
2022-09-17T05:29:21.236Z,11.63
2022-09-17T05:30:21.433Z,11.65
2022-09-17T05:31:21.308Z,11.69
2022-09-17T05:32:21.308Z,11.70
2022-09-17T05:33:21.168Z,11.70
2022-09-17T05:34:21.193Z,11.69
2022-09-17T05:35:21.225Z,11.68
2022-09-17T05:36:21.244Z,11.69
2022-09-17T05:37:21.216Z,11.66
2022-09-17T05:38:21.205Z,11.66
2022-09-17T05:39:21.186Z,11.63
2022-09-17T05:40:21.280Z,11.66
2022-09-17T05:41:21.218Z,11.62
2022-09-17T05:42:21.065Z,11.63
2022-09-17T05:43:21.412Z,11.63
2022-09-17T05:44:21.027Z,11.60
2022-09-17T05:45:21.038Z,11.60
2022-09-17T05:46:21.330Z,11.60
2022-09-17T05:47:21.086Z,11.60
2022-09-17T05:48:20.981Z,11.63
2022-09-17T05:49:20.994Z,11.59
2022-09-17T05:50:21.138Z,11.57
2022-09-17T05:51:21.029Z,11.57
2022-09-17T05:52:20.935Z,11.54
2022-09-17T05:53:21.375Z,11.57
2022-09-17T05:54:21.033Z,11.55
2022-09-17T05:55:21.084Z,11.54
2022-09-17T05:56:20.914Z,11.54
2022-09-17T05:57:23.946Z,11.52
2022-09-17T05:58:24.983Z,11.54
2022-09-17T05:59:21.010Z,11.52
2022-09-17T06:00:20.900Z,11.52
2022-09-17T06:01:21.124Z,11.52
2022-09-17T06:02:21.255Z,11.54
2022-09-17T06:03:24.951Z,11.54
2022-09-17T06:04:42.549Z,11.54
2022-09-17T06:05:25.612Z,11.59
2022-09-17T06:07:31.653Z,11.60
2022-09-17T06:08:31.614Z,11.62
2022-09-17T06:09:31.613Z,11.63
2022-09-17T06:10:31.593Z,11.65
2022-09-17T06:11:31.584Z,11.65
2022-09-17T06:12:31.573Z,11.65
2022-09-17T06:13:31.554Z,11.66
2022-09-17T06:14:31.540Z,11.69
2022-09-17T06:15:31.533Z,11.69
2022-09-17T06:16:31.651Z,11.69
2022-09-17T06:17:31.512Z,11.70
2022-09-17T06:18:31.484Z,11.72
2022-09-17T06:19:31.477Z,11.73
2022-09-17T06:20:31.461Z,11.75
2022-09-17T06:21:31.453Z,11.75
2022-09-17T06:22:31.462Z,11.77
2022-09-17T06:23:31.423Z,11.75
2022-09-17T06:24:31.413Z,11.75
2022-09-17T06:25:31.402Z,11.75
2022-09-17T06:26:31.393Z,11.75
2022-09-17T06:27:31.393Z,11.75
2022-09-17T06:28:31.352Z,11.77
2022-09-17T06:29:31.354Z,11.78
2022-09-17T06:30:31.330Z,11.80
2022-09-17T06:31:31.548Z,11.81
2022-09-17T06:32:31.311Z,11.83
2022-09-17T06:33:31.292Z,11.83
2022-09-17T06:34:31.303Z,11.84
2022-09-17T06:35:31.271Z,11.84
2022-09-17T06:36:31.261Z,11.87
2022-09-17T06:37:31.255Z,11.90
2022-09-17T06:38:31.233Z,11.91
2022-09-17T06:39:31.221Z,11.94
2022-09-17T06:40:31.246Z,11.97
2022-09-17T06:41:31.191Z,12.00
2022-09-17T06:42:31.181Z,12.00
2022-09-17T06:43:31.190Z,12.04
2022-09-17T06:44:31.152Z,12.04
2022-09-17T06:45:31.150Z,12.06
2022-09-17T06:46:31.185Z,12.09
2022-09-17T06:47:31.130Z,12.09
2022-09-17T06:48:31.100Z,12.13
2022-09-17T06:49:31.095Z,12.17
2022-09-17T06:50:31.071Z,12.17
2022-09-17T06:51:31.070Z,12.18
2022-09-17T06:52:31.062Z,12.20
2022-09-17T06:53:31.050Z,12.21
2022-09-17T06:54:31.020Z,12.24
2022-09-17T06:55:31.010Z,12.22
2022-09-17T06:56:31.000Z,12.29
2022-09-17T06:57:31.000Z,12.32
2022-09-17T06:58:30.972Z,12.35
2022-09-17T06:59:30.963Z,12.37
2022-09-17T07:00:30.939Z,12.49
2022-09-17T07:01:31.021Z,12.50
2022-09-17T07:02:30.966Z,12.64
2022-09-17T07:03:30.918Z,12.72
2022-09-17T07:04:30.899Z,12.70
2022-09-17T07:05:30.884Z,12.86
2022-09-17T07:06:30.870Z,12.87
2022-09-17T07:07:30.868Z,13.03
2022-09-17T07:08:30.849Z,13.27
2022-09-17T07:09:30.831Z,13.68
2022-09-17T07:10:30.810Z,13.67
2022-09-17T07:11:30.809Z,13.75
2022-09-17T07:12:30.790Z,13.83
2022-09-17T07:13:30.800Z,13.92
2022-09-17T07:14:30.758Z,13.93
2022-09-17T07:15:30.759Z,13.99
2022-09-17T07:16:30.794Z,14.07
2022-09-17T07:17:30.738Z,14.07
2022-09-17T07:18:30.728Z,14.12
2022-09-17T07:19:30.698Z,14.28
2022-09-17T07:20:30.678Z,14.29
2022-09-17T07:21:30.678Z,14.29
2022-09-17T07:22:30.676Z,14.32
2022-09-17T07:23:30.658Z,14.35
2022-09-17T07:24:32.892Z,14.35
2022-09-17T07:25:30.677Z,14.35
2022-09-17T07:26:30.608Z,14.36
2022-09-17T07:27:30.607Z,14.35
2022-09-17T07:28:30.587Z,14.33
2022-09-17T07:29:30.628Z,14.32
2022-09-17T07:30:30.555Z,14.32
2022-09-17T07:31:30.602Z,14.33
2022-09-17T07:32:30.706Z,14.32
2022-09-17T07:33:30.508Z,14.32
2022-09-17T07:34:30.499Z,14.33
2022-09-17T07:35:30.508Z,14.35
2022-09-17T07:36:30.477Z,14.36
2022-09-17T07:37:30.477Z,14.43
2022-09-17T07:38:30.547Z,14.44
2022-09-17T07:39:30.438Z,14.44
2022-09-17T07:40:30.461Z,14.47
2022-09-17T07:41:30.408Z,14.47
2022-09-17T07:42:30.417Z,14.50
2022-09-17T07:43:30.380Z,14.50
2022-09-17T07:44:30.375Z,14.51
2022-09-17T07:45:30.366Z,14.86
2022-09-17T07:46:30.405Z,15.07
2022-09-17T07:47:30.336Z,15.29
2022-09-17T07:48:30.332Z,15.57
2022-09-17T07:49:30.306Z,15.83
2022-09-17T07:50:30.301Z,16.09
2022-09-17T07:51:30.287Z,16.35
2022-09-17T07:52:30.294Z,16.36
2022-09-17T07:53:30.264Z,16.60
2022-09-17T07:54:30.247Z,16.58
2022-09-17T07:55:30.241Z,16.75
2022-09-17T07:56:30.216Z,16.90
2022-09-17T07:57:30.195Z,16.91
2022-09-17T07:58:30.196Z,17.36
2022-09-17T07:59:30.185Z,17.36
2022-09-17T08:00:30.437Z,17.63
2022-09-17T08:01:30.197Z,17.67
2022-09-17T08:02:30.292Z,17.64
2022-09-17T08:03:30.125Z,18.00
2022-09-17T08:04:30.114Z,17.98
2022-09-17T08:05:30.093Z,18.16
2022-09-17T08:06:30.116Z,18.35
2022-09-17T08:07:30.075Z,18.50
2022-09-17T08:08:30.064Z,18.80
2022-09-17T08:09:30.036Z,18.99
2022-09-17T08:10:30.033Z,19.18
2022-09-17T08:11:54.365Z,19.26
2022-09-17T08:12:31.019Z,19.26
2022-09-17T08:13:30.175Z,19.29
2022-09-17T08:14:30.214Z,19.40
2022-09-17T08:15:29.963Z,19.58
2022-09-17T08:16:29.994Z,19.76
2022-09-17T08:17:29.954Z,19.74
2022-09-17T08:18:29.937Z,20.06
2022-09-17T08:19:29.936Z,20.06
2022-09-17T08:20:29.904Z,20.37
2022-09-17T08:21:29.895Z,20.39
2022-09-17T08:22:29.884Z,20.55
2022-09-17T08:23:29.866Z,20.69
2022-09-17T08:24:29.844Z,20.95
2022-09-17T08:25:29.828Z,20.97
2022-09-17T08:26:29.817Z,21.09
2022-09-17T08:27:29.814Z,21.39
2022-09-17T08:28:29.794Z,21.39
2022-09-17T08:29:34.491Z,21.54
2022-09-17T08:30:30.794Z,21.79
2022-09-17T08:31:29.831Z,21.80
2022-09-17T08:32:29.744Z,22.00
2022-09-17T08:33:29.743Z,22.10
2022-09-17T08:34:29.714Z,22.20
2022-09-17T08:35:29.694Z,22.22
2022-09-17T08:36:29.694Z,22.30
2022-09-17T08:37:29.693Z,22.51
2022-09-17T08:38:29.684Z,22.53
2022-09-17T08:39:29.708Z,22.76
2022-09-17T08:40:29.681Z,22.78
2022-09-17T08:41:29.623Z,22.91
2022-09-17T08:42:29.659Z,23.18
2022-09-17T08:43:29.604Z,23.28
2022-09-17T08:44:29.584Z,23.31
2022-09-17T08:45:29.573Z,23.36
2022-09-17T08:46:29.609Z,23.61
2022-09-17T08:47:29.562Z,23.61
2022-09-17T08:48:29.544Z,23.74
2022-09-17T08:49:29.538Z,23.96
2022-09-17T08:50:29.505Z,24.08
2022-09-17T08:51:29.494Z,24.20
2022-09-17T08:52:29.486Z,24.20
2022-09-17T08:53:29.475Z,24.29
2022-09-17T08:54:29.455Z,24.43
2022-09-17T08:55:29.441Z,24.57
2022-09-17T08:56:29.435Z,24.40
2022-09-17T08:57:29.414Z,24.40
2022-09-17T08:58:29.413Z,24.50
2022-09-17T08:59:29.415Z,24.60
2022-09-17T09:00:29.374Z,24.73
2022-09-17T09:01:29.372Z,24.73
2022-09-17T09:02:29.516Z,24.81
2022-09-17T09:03:29.344Z,24.80
2022-09-17T09:04:29.324Z,24.78
2022-09-17T09:05:29.324Z,24.88
2022-09-17T09:06:29.303Z,25.11
2022-09-17T09:07:29.291Z,25.22
2022-09-17T09:08:29.373Z,25.32
2022-09-17T09:09:29.253Z,25.41
2022-09-17T09:10:29.243Z,25.40
2022-09-17T09:11:29.232Z,25.48
2022-09-17T09:12:29.225Z,25.68
2022-09-17T09:13:29.212Z,25.77
2022-09-17T09:14:29.194Z,25.77
2022-09-17T09:15:29.177Z,25.87
2022-09-17T09:16:29.199Z,25.96
2022-09-17T09:17:29.192Z,26.06
2022-09-17T09:18:29.176Z,26.06
2022-09-17T09:19:29.143Z,25.75
2022-09-17T09:20:29.134Z,25.73
2022-09-17T09:21:29.094Z,25.69
2022-09-17T09:22:29.083Z,25.80
2022-09-17T09:23:29.224Z,25.80
2022-09-17T09:24:29.073Z,25.90
2022-09-17T09:25:30.124Z,26.18
2022-09-17T09:26:29.160Z,26.34
2022-09-17T09:27:29.117Z,26.34
2022-09-17T09:28:29.143Z,26.33
2022-09-17T09:29:29.128Z,26.41
2022-09-17T09:30:29.000Z,26.41
2022-09-17T09:31:29.174Z,25.85
2022-09-17T09:32:28.963Z,25.85
2022-09-17T09:33:28.953Z,25.18
2022-09-17T09:34:28.934Z,25.18
2022-09-17T09:35:28.912Z,24.88
2022-09-17T09:36:28.913Z,24.24
2022-09-17T09:37:28.902Z,23.91
2022-09-17T09:38:28.905Z,23.59
2022-09-17T09:39:28.864Z,23.61
2022-09-17T09:40:28.999Z,23.17
2022-09-17T09:41:28.833Z,23.15
2022-09-17T09:42:28.838Z,22.98
2022-09-17T09:43:41.164Z,22.83
2022-09-17T09:44:29.808Z,22.65
2022-09-17T09:45:28.783Z,22.63
2022-09-17T09:46:28.803Z,22.47
2022-09-17T09:47:28.822Z,22.26
2022-09-17T09:48:28.773Z,22.47
2022-09-17T09:49:28.725Z,22.45
2022-09-17T09:50:38.573Z,22.72
2022-09-17T09:51:29.703Z,23.18
2022-09-17T09:52:28.744Z,23.21
2022-09-17T09:53:28.731Z,23.50
2022-09-17T09:54:28.693Z,23.81
2022-09-17T09:55:28.654Z,24.06
2022-09-17T09:56:28.684Z,24.06
2022-09-17T09:57:28.644Z,23.84
2022-09-17T09:58:28.643Z,23.83
2022-09-17T09:59:28.614Z,23.32
2022-09-17T10:00:28.609Z,23.32
2022-09-17T10:01:28.617Z,22.87
2022-09-17T10:02:28.771Z,22.88
2022-09-17T10:03:28.582Z,22.50
2022-09-17T10:04:28.553Z,22.33
2022-09-17T10:05:28.513Z,22.13
2022-09-17T10:06:28.513Z,22.14
2022-09-17T10:07:28.494Z,21.82
2022-09-17T10:08:28.507Z,21.70
2022-09-17T10:09:28.463Z,21.55
2022-09-17T10:10:28.468Z,21.57
2022-09-17T10:11:28.441Z,21.40
2022-09-17T10:12:28.439Z,21.25
2022-09-17T10:13:28.423Z,21.18
2022-09-17T10:14:28.413Z,21.37
2022-09-17T10:15:28.396Z,21.37
2022-09-17T10:16:28.465Z,21.57
2022-09-17T10:17:28.363Z,21.88
2022-09-17T10:18:28.364Z,22.17
2022-09-17T10:19:28.333Z,22.18
2022-09-17T10:20:28.333Z,22.10
2022-09-17T10:21:28.318Z,22.35
2022-09-17T10:22:28.303Z,22.94
2022-09-17T10:23:28.303Z,23.21
2022-09-17T10:24:28.278Z,23.20
2022-09-17T10:25:28.290Z,23.73
2022-09-17T10:26:28.251Z,23.74
2022-09-17T10:27:28.233Z,23.95
2022-09-17T10:28:28.235Z,24.42
2022-09-17T10:29:28.213Z,24.43
2022-09-17T10:30:28.207Z,24.63
2022-09-17T10:31:28.243Z,24.96
2022-09-17T10:32:28.163Z,24.85
2022-09-17T10:33:28.164Z,24.86
2022-09-17T10:34:28.146Z,25.10
2022-09-17T10:35:28.123Z,25.18
2022-09-17T10:36:28.117Z,25.18
2022-09-17T10:37:28.103Z,25.18
2022-09-17T10:38:28.103Z,24.61
2022-09-17T10:39:28.085Z,24.61
2022-09-17T10:40:28.132Z,24.28
2022-09-17T10:41:28.043Z,24.05
2022-09-17T10:42:28.035Z,24.05
2022-09-17T10:43:28.033Z,23.83
2022-09-17T10:44:28.013Z,23.76
2022-09-17T10:45:27.992Z,23.59
2022-09-17T10:46:28.192Z,23.40
2022-09-17T10:47:27.963Z,23.20
2022-09-17T10:48:27.971Z,23.21
2022-09-17T10:49:27.941Z,23.02
2022-09-17T10:50:27.937Z,23.02
2022-09-17T10:51:27.925Z,23.08
2022-09-17T10:52:27.926Z,23.08
2022-09-17T10:53:27.905Z,22.85
2022-09-17T10:54:27.873Z,22.87
2022-09-17T10:55:27.862Z,22.57
2022-09-17T10:56:27.854Z,22.38
2022-09-17T10:57:27.833Z,22.20
2022-09-17T10:58:27.844Z,22.22
2022-09-17T10:59:27.823Z,22.06
2022-09-17T11:00:27.823Z,21.92
2022-09-17T11:01:27.833Z,21.80
2022-09-17T11:02:27.871Z,21.75
2022-09-17T11:03:27.783Z,21.67
2022-09-17T11:04:27.753Z,21.88
2022-09-17T11:05:27.783Z,21.88
2022-09-17T11:06:27.734Z,22.06
2022-09-17T11:07:27.717Z,22.14
2022-09-17T11:08:27.713Z,22.13
2022-09-17T11:09:27.682Z,21.99
2022-09-17T11:10:27.685Z,21.99
2022-09-17T11:11:27.664Z,21.92
2022-09-17T11:12:27.645Z,21.91
2022-09-17T11:13:27.644Z,21.79
2022-09-17T11:14:27.666Z,21.69
2022-09-17T11:15:27.614Z,21.70
2022-09-17T11:16:27.642Z,21.75
2022-09-17T11:17:27.584Z,21.85
2022-09-17T11:18:27.604Z,21.92
2022-09-17T11:19:27.554Z,22.07
2022-09-17T11:20:27.574Z,22.17
2022-09-17T11:21:27.522Z,22.17
2022-09-17T11:22:27.514Z,22.22
2022-09-17T11:23:27.504Z,22.22
2022-09-17T11:24:27.495Z,22.22
2022-09-17T11:25:27.474Z,22.10
2022-09-17T11:26:27.473Z,22.10
2022-09-17T11:27:27.463Z,22.02
2022-09-17T11:28:27.443Z,21.96
2022-09-17T11:29:27.432Z,21.89
2022-09-17T11:30:27.424Z,21.92
2022-09-17T11:31:27.494Z,21.85
2022-09-17T11:32:27.398Z,21.77
2022-09-17T11:33:27.405Z,21.72
2022-09-17T11:34:27.365Z,21.72
2022-09-17T11:35:27.363Z,21.66
2022-09-17T11:36:27.343Z,21.58
2022-09-17T11:37:27.313Z,21.57
2022-09-17T11:38:27.314Z,21.64
2022-09-17T11:39:27.294Z,21.66
2022-09-17T11:40:27.377Z,21.60
2022-09-17T11:41:27.264Z,21.61
2022-09-17T11:42:27.272Z,21.64
2022-09-17T11:43:27.248Z,21.70
2022-09-17T11:44:27.225Z,21.72
2022-09-17T11:45:27.243Z,21.66
2022-09-17T11:46:27.272Z,21.55
2022-09-17T11:47:27.185Z,21.36
2022-09-17T11:48:27.184Z,21.27
2022-09-17T11:49:27.173Z,21.18
2022-09-17T11:50:27.163Z,21.20
2022-09-17T11:51:27.133Z,21.00
2022-09-17T11:52:27.123Z,20.93
2022-09-17T11:53:27.103Z,20.81
2022-09-17T11:54:27.103Z,20.70
2022-09-17T11:55:27.084Z,20.72
2022-09-17T11:56:27.064Z,20.62
2022-09-17T11:57:27.068Z,20.52
2022-09-17T11:58:27.103Z,20.39
2022-09-17T11:59:27.034Z,20.39
2022-09-17T12:00:27.005Z,20.25
2022-09-17T12:01:26.994Z,20.19
2022-09-17T12:02:27.117Z,20.21
2022-09-17T12:03:27.022Z,20.18
2022-09-17T12:04:26.963Z,20.07
2022-09-17T12:05:26.950Z,20.09
2022-09-17T12:06:26.932Z,19.99
2022-09-17T12:07:26.934Z,19.86
2022-09-17T12:08:26.911Z,19.70
2022-09-17T12:09:26.893Z,19.63
2022-09-17T12:10:26.884Z,19.51
2022-09-17T12:11:26.872Z,19.40
2022-09-17T12:12:48.243Z,19.44
2022-09-17T12:13:27.852Z,19.31
2022-09-17T12:14:26.836Z,19.11
2022-09-17T12:15:26.823Z,19.00
2022-09-17T12:16:26.862Z,18.92
2022-09-17T12:17:26.802Z,18.81
2022-09-17T12:18:32.171Z,18.80
2022-09-17T12:19:27.763Z,18.70
2022-09-17T12:20:26.752Z,18.62
2022-09-17T12:21:26.742Z,18.55
2022-09-17T12:22:26.738Z,18.49
2022-09-17T12:23:26.722Z,18.50
2022-09-17T12:24:26.702Z,18.44
2022-09-17T12:25:26.682Z,18.37
2022-09-17T12:26:26.663Z,18.35
2022-09-17T12:27:26.671Z,18.28
2022-09-17T12:28:26.640Z,18.29
2022-09-17T12:29:26.642Z,18.19
2022-09-17T12:30:26.646Z,18.15
2022-09-17T12:31:26.633Z,18.15
2022-09-17T12:32:26.590Z,18.03
2022-09-17T12:33:26.621Z,18.05
2022-09-17T12:34:26.582Z,17.94
2022-09-17T12:35:46.440Z,17.90
2022-09-17T12:36:27.572Z,17.89
2022-09-17T12:37:26.521Z,17.83
2022-09-17T12:38:26.531Z,17.80
2022-09-17T12:39:26.501Z,17.80
2022-09-17T12:40:26.562Z,17.79
2022-09-17T12:41:26.479Z,17.74
2022-09-17T12:42:26.463Z,17.74
2022-09-17T12:43:26.480Z,17.74
2022-09-17T12:44:26.441Z,17.74
2022-09-17T12:45:26.419Z,17.72
2022-09-17T12:46:26.470Z,17.76
2022-09-17T12:47:26.400Z,17.71
2022-09-17T12:48:26.399Z,17.71
2022-09-17T12:49:26.379Z,17.68
2022-09-17T12:50:26.348Z,17.64
2022-09-17T12:51:26.350Z,17.54
2022-09-17T12:52:26.343Z,17.49
2022-09-17T12:53:26.330Z,17.51
2022-09-17T12:54:26.336Z,17.38